Time;durP1;ratioP1;P1;durP2;ratioP2;P2;SDS_P1;SDS_P2;PMS_P1;PMS_P2;Temp;Humidity;BMP_temperature;BMP_pressure;BME280_temperature;BME280_humidity;BME280_pressure;Samples;Min_cycle;Max_cycle;Signal;HPM_P1;HPM_P2
2022/01/01 00:02:04;;;;;;;26.17;15.60;;;;;;;6.36;77.63;100425.22;5067849;28;20420;-20
2022/01/01 00:04:29;;;;;;;30.10;16.67;;;;;;;6.44;77.31;100426.97;5067785;28;20075;-21
2022/01/01 00:06:55;;;;;;;24.38;15.38;;;;;;;6.63;76.14;100430.88;5067996;28;20392;-21
2022/01/01 00:09:21;;;;;;;26.77;15.10;;;;;;;6.56;76.01;100419.34;5049404;28;20125;-20
2022/01/01 00:11:46;;;;;;;28.55;17.98;;;;;;;6.35;76.55;100397.06;5067771;28;20043;-21
2022/01/01 00:14:12;;;;;;;31.20;18.70;;;;;;;6.39;76.94;100408.13;5067598;28;20036;-20
2022/01/01 00:16:37;;;;;;;29.00;17.52;;;;;;;5.90;77.72;100413.88;5049574;28;20103;-21
2022/01/01 00:19:04;;;;;;;31.30;19.17;;;;;;;5.20;79.04;100411.28;5049657;28;20455;-20
2022/01/01 00:21:30;;;;;;;37.55;21.10;;;;;;;5.02;80.48;100400.16;5067596;28;20790;-21
2022/01/01 00:23:55;;;;;;;49.15;27.33;;;;;;;5.51;79.80;100420.97;5067616;28;20111;-21
2022/01/01 00:26:20;;;;;;;55.78;35.47;;;;;;;5.91;78.55;100426.94;5049720;28;20036;-21
2022/01/01 00:28:46;;;;;;;46.15;30.25;;;;;;;5.59;79.26;100423.56;5067594;28;20033;-21
2022/01/01 00:31:12;;;;;;;50.83;31.20;;;;;;;5.89;79.25;100407.78;5049282;28;20048;-21
2022/01/01 00:33:37;;;;;;;52.53;33.20;;;;;;;6.09;78.03;100412.56;5067274;28;20050;-21
2022/01/01 00:36:03;;;;;;;55.15;34.75;;;;;;;5.99;78.09;100397.78;5067711;28;20141;-20
2022/01/01 00:38:29;;;;;;;59.60;39.35;;;;;;;6.15;77.65;100417.16;5067522;28;20036;-20
2022/01/01 00:40:54;;;;;;;57.15;38.90;;;;;;;5.91;77.61;100405.78;5067162;28;20032;-21
2022/01/01 00:43:19;;;;;;;55.42;36.95;;;;;;;5.79;78.05;100396.63;5067864;28;20032;-21
2022/01/01 00:45:45;;;;;;;52.13;34.13;;;;;;;5.71;78.64;100405.44;5066831;28;20032;-22
2022/01/01 00:48:10;;;;;;;53.22;35.55;;;;;;;5.93;78.95;100398.47;5067316;28;20075;-20
2022/01/01 00:50:36;;;;;;;62.25;35.83;;;;;;;6.23;76.84;100402.00;5067757;28;20403;-21
2022/01/01 00:53:01;;;;;;;51.28;34.45;;;;;;;6.00;77.95;100386.19;5067418;28;20037;-21
2022/01/01 00:55:27;;;;;;;55.47;36.00;;;;;;;5.63;78.58;100387.81;5066823;28;20515;-20
2022/01/01 00:57:53;;;;;;;52.97;35.35;;;;;;;5.50;78.06;100377.03;5049302;28;20074;-20
2022/01/01 01:00:18;;;;;;;50.15;31.55;;;;;;;5.57;79.49;100383.25;5067040;28;20024;-20
2022/01/01 01:02:44;;;;;;;49.38;30.63;;;;;;;4.86;81.52;100357.97;5049189;28;20056;-20
2022/01/01 01:05:10;;;;;;;46.88;30.58;;;;;;;5.32;80.29;100379.16;5067290;28;20093;-21
2022/01/01 01:07:35;;;;;;;46.60;29.73;;;;;;;4.93;81.62;100380.88;5067999;28;20028;-21
2022/01/01 01:10:01;;;;;;;45.85;28.13;;;;;;;4.88;81.43;100377.94;5070907;28;20047;-22
2022/01/01 01:12:37;;;;;;;42.67;28.25;;;;;;;5.41;80.04;100383.38;5053152;28;20420;-20
2022/01/01 01:15:03;;;;;;;45.85;29.77;;;;;;;5.50;79.03;100377.03;5070802;28;20038;-21
2022/01/01 01:17:29;;;;;;;47.83;30.05;;;;;;;5.64;77.94;100375.44;5070424;28;20039;-20
2022/01/01 01:19:54;;;;;;;48.70;31.23;;;;;;;5.37;79.87;100375.00;5070671;28;20028;-20
2022/01/01 01:22:20;;;;;;;369.75;169.60;;;;;;;5.35;78.96;100352.34;5070409;28;20033;-22
2022/01/01 01:24:45;;;;;;;185.00;91.70;;;;;;;5.64;78.09;100347.13;5070558;28;20044;-21
2022/01/01 01:27:11;;;;;;;113.32;63.70;;;;;;;5.52;78.79;100359.16;5070805;28;20047;-21
2022/01/01 01:29:41;;;;;;;50.33;30.50;;;;;;;5.53;79.36;100350.19;5070789;28;20052;-21
2022/01/01 01:32:07;;;;;;;61.13;40.42;;;;;;;5.53;79.13;100331.69;5070440;28;20035;-21
2022/01/01 01:34:33;;;;;;;58.88;38.85;;;;;;;5.39;79.04;100343.06;5070595;28;20041;-21
2022/01/01 01:36:58;;;;;;;47.22;30.30;;;;;;;5.88;77.35;100339.94;5070532;28;20032;-21
2022/01/01 01:39:25;;;;;;;46.92;31.60;;;;;;;5.16;79.07;100338.59;5070115;28;20055;-21
2022/01/01 01:41:52;;;;;;;41.85;24.38;;;;;;;4.74;81.75;100334.59;5070493;28;20029;-20
2022/01/01 01:44:24;;;;;;;35.95;22.45;;;;;;;4.60;81.91;100337.97;5070304;28;20768;-20
2022/01/01 01:46:49;;;;;;;37.35;22.25;;;;;;;4.62;83.64;100328.06;5070377;28;20039;-20
2022/01/01 01:49:15;;;;;;;44.05;27.40;;;;;;;4.71;83.16;100337.56;5070178;28;20040;-20
2022/01/01 01:51:40;;;;;;;42.10;24.42;;;;;;;4.83;82.40;100333.53;5069891;28;20036;-21
2022/01/01 01:54:06;;;;;;;49.20;32.72;;;;;;;5.07;81.65;100334.38;5070538;28;20851;-21
2022/01/01 01:56:33;;;;;;;57.15;41.88;;;;;;;4.99;81.61;100327.34;5035337;28;20089;-21
2022/01/01 01:58:59;;;;;;;45.92;27.42;;;;;;;5.30;81.24;100333.56;5035505;28;20028;-21
2022/01/01 02:01:24;;;;;;;59.05;37.53;;;;;;;4.98;81.99;100332.78;5069595;28;20043;-21
2022/01/01 02:03:50;;;;;;;42.60;24.75;;;;;;;5.03;81.81;100336.56;5070061;28;20032;-21
2022/01/01 02:06:16;;;;;;;42.67;23.95;;;;;;;5.13;81.82;100331.03;5069877;28;20031;-20
2022/01/01 02:08:42;;;;;;;41.88;23.50;;;;;;;5.26;81.12;100330.44;5069747;28;20028;-20
2022/01/01 02:11:08;;;;;;;41.95;24.05;;;;;;;5.37;80.67;100327.38;5069892;28;20416;-21
2022/01/01 02:13:59;;;;;;;37.15;22.27;;;;;;;4.95;81.96;100333.16;5069975;28;20039;-20
2022/01/01 02:18:52;;;;;;;34.70;19.73;;;;;;;4.97;83.69;100325.88;5069382;28;20068;-21
2022/01/01 02:21:17;;;;;;;33.47;18.67;;;;;;;5.31;81.71;100300.81;5069520;28;20119;-20
2022/01/01 02:23:44;;;;;;;40.28;22.42;;;;;;;5.34;81.18;100318.97;5069192;28;20043;-21
2022/01/01 02:26:12;;;;;;;39.42;22.38;;;;;;;5.26;80.84;100317.22;5051773;28;20033;-21
2022/01/01 02:28:47;;;;;;;35.85;19.63;;;;;;;4.78;81.55;100296.25;5069633;28;20060;-20
2022/01/01 02:31:13;;;;;;;34.88;20.33;;;;;;;5.29;78.62;100316.03;5069796;28;20056;-21
2022/01/01 02:33:39;;;;;;;34.42;19.60;;;;;;;5.13;79.10;100291.38;5069196;28;20051;-21
2022/01/01 02:36:06;;;;;;;38.03;21.70;;;;;;;5.33;78.53;100296.16;5051278;28;20033;-20
2022/01/01 02:38:32;;;;;;;36.03;21.23;;;;;;;5.50;77.27;100302.16;5051195;28;20127;-20
2022/01/01 02:40:57;;;;;;;43.95;23.95;;;;;;;5.31;77.39;100298.16;5069186;28;20039;-21
2022/01/01 02:43:23;;;;;;;50.00;28.42;;;;;;;4.98;79.77;100293.13;5069243;28;20036;-21
2022/01/01 02:45:50;;;;;;;43.83;24.98;;;;;;;5.14;78.07;100290.38;5069500;28;20033;-20
2022/01/01 02:48:15;;;;;;;35.70;20.40;;;;;;;4.96;77.76;100301.25;5069150;28;20029;-21
2022/01/01 02:50:41;;;;;;;37.25;20.40;;;;;;;4.93;78.11;100311.38;5068936;28;20590;-21
2022/01/01 02:53:15;;;;;;;33.50;19.35;;;;;;;4.59;77.77;100304.63;5051026;28;20116;-21
2022/01/01 02:55:44;;;;;;;31.25;19.25;;;;;;;3.59;82.18;100276.13;5069109;28;20020;-21
2022/01/01 02:58:09;;;;;;;;;;;;;;;3.53;82.24;100304.00;5069531;28;20027;-21
2022/01/01 03:00:35;;;;;;;43.25;22.63;;;;;;;3.26;83.40;100294.63;5068736;28;19916;-21
2022/01/01 03:03:00;;;;;;;40.95;22.55;;;;;;;3.29;82.39;100267.97;5034103;28;20025;-20
2022/01/01 03:05:27;;;;;;;57.70;31.85;;;;;;;3.72;80.69;100265.91;5068407;28;20044;-20
2022/01/01 03:07:52;;;;;;;53.85;27.15;;;;;;;3.77;81.60;100284.66;5068463;28;20090;-20
2022/01/01 03:10:18;;;;;;;162.63;76.28;;;;;;;3.69;81.97;100291.78;5050753;28;20032;-21
2022/01/01 03:12:43;;;;;;;72.00;38.20;;;;;;;3.85;81.07;100294.38;5050748;28;20036;-20
2022/01/01 03:15:09;;;;;;;48.40;26.42;;;;;;;3.69;80.42;100291.78;5068778;28;20378;-20
2022/01/01 03:17:34;;;;;;;48.00;28.23;;;;;;;3.90;80.86;100289.41;5068269;28;20056;-21
2022/01/01 03:20:00;;;;;;;39.95;23.58;;;;;;;3.70;83.47;100315.38;5068497;28;20067;-21
2022/01/01 03:22:25;;;;;;;42.15;25.40;;;;;;;3.89;82.35;100306.25;5068480;28;20035;-21
2022/01/01 03:24:51;;;;;;;43.85;24.10;;;;;;;3.88;80.63;100280.03;5068438;28;20587;-21
2022/01/01 03:27:16;;;;;;;42.13;23.33;;;;;;;4.13;80.07;100278.13;5068251;28;20412;-21
2022/01/01 03:29:42;;;;;;;41.28;23.15;;;;;;;4.29;78.59;100285.97;5049283;28;20056;-21
2022/01/01 03:32:07;;;;;;;43.25;24.80;;;;;;;4.06;80.13;100291.16;5050063;28;20475;-21
2022/01/01 03:34:33;;;;;;;44.10;26.30;;;;;;;4.02;81.09;100288.06;5068599;28;20803;-21
2022/01/01 03:36:58;;;;;;;43.13;22.80;;;;;;;3.89;81.05;100287.78;5067954;28;20028;-21
2022/01/01 03:39:25;;;;;;;42.95;22.95;;;;;;;3.74;82.83;100289.44;5067935;28;20401;-21
2022/01/01 03:41:50;;;;;;;43.03;23.88;;;;;;;3.74;83.60;100268.34;5068006;28;20527;-21
2022/01/01 03:44:16;;;;;;;44.33;25.00;;;;;;;4.23;82.42;100278.75;5068079;28;20048;-20
2022/01/01 03:46:41;;;;;;;44.88;24.85;;;;;;;4.43;80.96;100271.19;5067833;28;20029;-21
2022/01/01 03:49:06;;;;;;;41.08;22.95;;;;;;;4.27;81.01;100277.41;5067856;28;20040;-20
2022/01/01 03:51:32;;;;;;;43.53;25.92;;;;;;;4.26;80.75;100294.22;5049929;28;20043;-21
2022/01/01 03:53:57;;;;;;;52.20;33.30;;;;;;;3.83;82.59;100280.53;5068163;28;20431;-20
2022/01/01 03:56:23;;;;;;;40.97;24.92;;;;;;;3.83;82.77;100289.25;5067628;28;20099;-20
2022/01/01 03:58:48;;;;;;;48.08;26.60;;;;;;;4.13;82.15;100278.13;5067790;28;20032;-21
2022/01/01 04:01:14;;;;;;;43.38;26.60;;;;;;;4.41;80.22;100287.25;5067838;28;20035;-21
2022/01/01 04:03:39;;;;;;;46.95;28.17;;;;;;;4.20;81.93;100287.00;5067624;28;20507;-21
2022/01/01 04:06:05;;;;;;;45.10;25.95;;;;;;;4.04;82.52;100277.31;5067917;28;20036;-22
2022/01/01 04:08:31;;;;;;;47.58;26.88;;;;;;;4.28;81.73;100284.31;5067951;28;20040;-21
2022/01/01 04:10:56;;;;;;;39.78;23.85;;;;;;;4.03;82.40;100276.50;5067997;28;20047;-20
2022/01/01 04:13:22;;;;;;;44.00;24.33;;;;;;;4.19;81.34;100262.44;5067654;28;20045;-21
2022/01/01 04:15:48;;;;;;;44.20;24.33;;;;;;;4.26;82.53;100280.22;5049409;28;20028;-21
2022/01/01 04:18:14;;;;;;;36.95;22.80;;;;;;;4.25;81.50;100282.03;5049337;28;20040;-21
2022/01/01 04:20:41;;;;;;;37.72;20.65;;;;;;;4.14;81.92;100270.03;5067481;28;20459;-20
2022/01/01 04:23:09;;;;;;;36.55;21.02;;;;;;;3.89;82.31;100266.66;5067461;28;20032;-21
2022/01/01 04:25:34;;;;;;;52.47;30.25;;;;;;;3.77;82.50;100265.38;5067322;28;20024;-21
2022/01/01 04:28:00;;;;;;;40.05;23.80;;;;;;;3.66;83.02;100247.28;5067696;28;20111;-21
2022/01/01 04:30:28;;;;;;;46.63;26.02;;;;;;;3.91;83.19;100275.22;5049275;28;20436;-21
2022/01/01 04:32:54;;;;;;;51.60;27.65;;;;;;;3.99;82.93;100282.31;5049169;28;20036;-20
2022/01/01 04:35:20;;;;;;;56.15;31.90;;;;;;;3.77;84.59;100250.38;5067374;28;20427;-21
2022/01/01 04:37:46;;;;;;;60.55;30.67;;;;;;;4.15;82.43;100260.31;5067010;28;20029;-21
2022/01/01 04:40:12;;;;;;;45.78;26.00;;;;;;;4.31;82.63;100276.06;5067475;28;20105;-21
2022/01/01 04:42:38;;;;;;;46.63;23.85;;;;;;;4.07;84.67;100266.44;5070352;28;20074;-20
2022/01/01 04:45:04;;;;;;;55.08;30.17;;;;;;;3.67;86.17;100267.38;5071501;28;20446;-21
2022/01/01 04:47:29;;;;;;;80.78;38.45;;;;;;;3.70;87.84;100282.88;5052853;28;20032;-21
2022/01/01 04:49:55;;;;;;;43.28;22.42;;;;;;;3.94;88.21;100271.41;5071590;28;20067;-20
2022/01/01 04:52:20;;;;;;;42.63;22.33;;;;;;;4.07;86.92;100273.53;5071482;28;20060;-21
2022/01/01 04:54:46;;;;;;;59.97;31.92;;;;;;;4.18;85.83;100276.59;5071152;28;20032;-20
2022/01/01 04:57:12;;;;;;;38.55;22.13;;;;;;;3.92;86.77;100271.59;5071304;28;20276;-21
2022/01/01 04:59:38;;;;;;;109.38;55.85;;;;;;;4.17;85.40;100274.16;5071101;28;20040;-21
2022/01/01 05:02:04;;;;;;;62.42;32.92;;;;;;;4.12;85.93;100276.47;5071231;28;20017;-21
2022/01/01 05:04:29;;;;;;;45.25;25.58;;;;;;;4.33;84.45;100287.28;5071351;28;20028;-21
2022/01/01 05:06:55;;;;;;;33.60;20.75;;;;;;;4.44;83.69;100296.63;5053141;28;20021;-20
2022/01/01 05:09:20;;;;;;;71.68;39.40;;;;;;;4.05;84.94;100278.16;5070904;28;20435;-21
2022/01/01 05:11:46;;;;;;;45.83;26.15;;;;;;;4.13;84.14;100283.41;5070716;28;20028;-21
2022/01/01 05:14:12;;;;;;;68.25;36.80;;;;;;;3.90;84.59;100272.75;5070747;28;20039;-21
2022/01/01 05:16:38;;;;;;;52.78;27.30;;;;;;;3.97;85.30;100284.28;5070613;28;20115;-21
2022/01/01 05:19:04;;;;;;;32.30;20.13;;;;;;;3.97;84.61;100271.09;5070874;28;20032;-21
2022/01/01 05:21:32;;;;;;;47.67;27.45;;;;;;;3.83;85.54;100283.19;5070647;28;20032;-21
2022/01/01 05:24:01;;;;;;;79.53;43.05;;;;;;;3.84;86.15;100258.41;5070667;28;20086;-21
2022/01/01 05:26:26;;;;;;;;;;;;;;;4.17;85.06;100293.44;5071084;28;20119;-21
2022/01/01 05:28:51;;;;;;;55.35;32.70;;;;;;;4.18;85.27;100281.88;5070595;28;20015;-21
2022/01/01 05:31:17;;;;;;;62.05;34.78;;;;;;;4.22;85.00;100272.63;5052429;28;20086;-20
2022/01/01 05:33:43;;;;;;;51.97;30.77;;;;;;;4.01;85.65;100252.09;5070126;28;20048;-21
2022/01/01 05:36:08;;;;;;;121.18;66.10;;;;;;;4.05;85.46;100271.06;5070170;28;20029;-20
2022/01/01 05:38:33;;;;;;;101.97;49.28;;;;;;;4.07;84.43;100269.06;5070320;28;20032;-21
2022/01/01 05:40:59;;;;;;;55.08;30.05;;;;;;;4.20;83.77;100263.25;5070324;28;20028;-21
2022/01/01 05:43:24;;;;;;;36.45;22.55;;;;;;;4.52;81.43;100272.00;5070044;28;20039;-20
2022/01/01 05:45:50;;;;;;;32.00;18.20;;;;;;;4.12;81.65;100273.84;5052268;28;20416;-21
2022/01/01 05:48:15;;;;;;;33.90;18.23;;;;;;;4.36;81.33;100271.06;5052617;28;20036;-23
2022/01/01 05:50:41;;;;;;;35.30;19.95;;;;;;;3.84;82.69;100268.97;5070339;28;20039;-20
2022/01/01 05:53:06;;;;;;;31.75;18.52;;;;;;;3.69;82.30;100273.31;5069581;28;20036;-21
2022/01/01 05:55:32;;;;;;;27.95;16.38;;;;;;;2.86;84.40;100253.28;5069934;28;20044;-21
2022/01/01 05:57:57;;;;;;;28.20;17.20;;;;;;;3.05;85.19;100284.59;5070111;28;20553;-21
2022/01/01 06:00:23;;;;;;;32.13;17.40;;;;;;;3.12;85.73;100297.94;5069950;28;20028;-21
2022/01/01 06:02:48;;;;;;;30.05;18.67;;;;;;;3.44;85.56;100294.47;5070104;28;20032;-21
2022/01/01 06:05:14;;;;;;;34.05;18.40;;;;;;;3.27;86.15;100298.09;5070103;28;20086;-21
2022/01/01 06:07:39;;;;;;;27.15;16.45;;;;;;;2.79;87.96;100277.66;5051628;28;20071;-21
2022/01/01 06:10:05;;;;;;;30.25;18.10;;;;;;;2.67;89.96;100301.84;5069908;28;20067;-21
2022/01/01 06:12:31;;;;;;;32.67;19.33;;;;;;;2.81;89.99;100278.31;5069881;28;20078;-21
2022/01/01 06:14:56;;;;;;;30.10;18.00;;;;;;;3.27;88.19;100290.19;5051755;28;20794;-20
2022/01/01 06:17:22;;;;;;;41.47;21.17;;;;;;;3.57;87.60;100286.03;5069686;28;20051;-21
2022/01/01 06:19:47;;;;;;;61.90;33.10;;;;;;;3.78;85.32;100290.75;5069405;28;20035;-21
2022/01/01 06:22:13;;;;;;;38.45;22.60;;;;;;;3.69;86.50;100294.41;5070043;28;20555;-22
2022/01/01 06:24:39;;;;;;;55.60;31.70;;;;;;;4.20;84.74;100285.16;5069950;28;20740;-21
2022/01/01 06:27:04;;;;;;;59.85;35.95;;;;;;;4.51;83.31;100302.84;5069733;28;20454;-21
2022/01/01 06:29:30;;;;;;;133.07;60.67;;;;;;;4.32;83.78;100304.09;5069104;28;20048;-20
2022/01/01 06:31:55;;;;;;;352.85;169.73;;;;;;;4.56;82.95;100289.13;5069562;28;20028;-21
2022/01/01 06:34:21;;;;;;;174.20;84.28;;;;;;;4.60;83.26;100301.81;5069508;28;20404;-21
2022/01/01 06:36:46;;;;;;;237.30;113.30;;;;;;;4.92;83.04;100315.00;5069626;28;20028;-21
2022/01/01 06:39:11;;;;;;;218.85;108.43;;;;;;;5.24;80.97;100309.44;5069117;28;20040;-20
2022/01/01 06:41:37;;;;;;;144.48;61.42;;;;;;;5.00;81.59;100307.00;5068952;28;20032;-21
2022/01/01 06:44:03;;;;;;;103.55;47.33;;;;;;;4.63;83.05;100319.13;5069176;28;20037;-21
2022/01/01 06:46:28;;;;;;;91.90;47.30;;;;;;;4.88;82.03;100321.63;5069152;28;20100;-20
2022/01/01 06:48:53;;;;;;;88.95;45.90;;;;;;;4.86;83.09;100328.91;5069249;28;20037;-20
2022/01/01 06:51:19;;;;;;;105.57;49.63;;;;;;;4.64;84.18;100323.44;5068951;28;20032;-20
2022/01/01 06:53:44;;;;;;;193.82;96.40;;;;;;;4.85;83.26;100329.91;5068711;28;20036;-21
2022/01/01 06:56:10;;;;;;;101.75;53.17;;;;;;;4.93;83.06;100316.66;5068881;28;20029;-21
2022/01/01 06:58:36;;;;;;;79.60;46.03;;;;;;;5.10;81.86;100314.69;5068934;28;20051;-21
2022/01/01 07:01:02;;;;;;;80.85;48.28;;;;;;;5.42;81.39;100318.91;5068882;28;20416;-20
2022/01/01 07:03:27;;;;;;;85.00;48.05;;;;;;;5.36;82.12;100335.50;5068439;28;20040;-21
2022/01/01 07:05:53;;;;;;;89.03;52.25;;;;;;;5.69;80.43;100328.06;5067847;28;20055;-20
2022/01/01 07:08:18;;;;;;;93.95;53.90;;;;;;;5.14;82.75;100322.09;5068696;28;20036;-21
2022/01/01 07:10:45;;;;;;;71.68;42.05;;;;;;;4.99;82.98;100332.63;5068641;28;20849;-21
2022/01/01 07:13:15;;;;;;;44.58;27.58;;;;;;;4.56;86.33;100315.56;5068482;28;20096;-21
2022/01/01 07:15:40;;;;;;;46.10;28.73;;;;;;;4.71;85.93;100303.22;5068542;28;20063;-20
2022/01/01 07:18:06;;;;;;;45.92;28.88;;;;;;;5.07;84.57;100322.97;5068474;28;20034;-21
2022/01/01 07:20:31;;;;;;;45.58;28.27;;;;;;;5.50;82.49;100313.53;5068663;28;20037;-20
2022/01/01 07:22:56;;;;;;;48.22;29.00;;;;;;;5.68;81.89;100320.31;5033930;28;20044;-21
2022/01/01 07:25:22;;;;;;;45.65;26.05;;;;;;;5.78;82.49;100319.06;5068494;28;20066;-21
2022/01/01 07:27:47;;;;;;;46.13;27.70;;;;;;;6.19;80.19;100305.41;5068237;28;20033;-21
2022/01/01 07:30:13;;;;;;;45.38;28.50;;;;;;;6.51;78.87;100321.06;5067923;28;20060;-21
2022/01/01 07:32:40;;;;;;;41.30;27.27;;;;;;;6.56;77.85;100302.75;5068316;28;20035;-21
2022/01/01 07:35:05;;;;;;;53.60;33.33;;;;;;;6.71;78.05;100322.09;5067748;28;20062;-21
2022/01/01 07:37:31;;;;;;;44.83;26.08;;;;;;;6.02;81.32;100290.69;5067673;28;20036;-20
2022/01/01 07:39:56;;;;;;;61.97;36.38;;;;;;;6.07;82.20;100324.56;5068196;28;20032;-21
2022/01/01 07:42:22;;;;;;;64.38;37.30;;;;;;;6.44;80.56;100332.41;5068012;28;20041;-22
2022/01/01 07:44:47;;;;;;;71.68;40.10;;;;;;;6.41;80.68;100324.81;5068448;28;20032;-21
2022/01/01 07:47:13;;;;;;;72.40;43.53;;;;;;;6.37;80.91;100325.38;5050189;28;20024;-21
2022/01/01 07:49:38;;;;;;;84.47;46.08;;;;;;;6.55;81.33;100312.53;5067735;28;20036;-21
2022/01/01 07:52:04;;;;;;;130.88;70.13;;;;;;;6.85;80.61;100312.47;5067643;28;20028;-21
2022/01/01 07:54:29;;;;;;;70.15;45.58;;;;;;;6.86;80.38;100314.09;5067938;28;20036;-21
2022/01/01 07:56:55;;;;;;;80.22;49.78;;;;;;;6.91;80.93;100303.75;5049630;28;20028;-20
2022/01/01 07:59:20;;;;;;;70.82;44.38;;;;;;;6.65;82.11;100301.66;5050117;28;20033;-21
2022/01/01 08:01:46;;;;;;;67.72;44.33;;;;;;;6.35;83.80;100296.41;5067746;28;20035;-21
2022/01/01 08:04:11;;;;;;;105.95;56.10;;;;;;;6.30;84.37;100292.69;5067856;28;20036;-21
2022/01/01 08:06:37;;;;;;;153.23;78.18;;;;;;;6.29;83.36;100265.34;5067573;28;20029;-21
2022/01/01 08:09:03;;;;;;;94.03;54.28;;;;;;;6.09;84.99;100281.03;5068089;28;20469;-21
2022/01/01 08:11:28;;;;;;;67.05;40.15;;;;;;;6.56;83.64;100297.47;5067641;28;20029;-21
2022/01/01 08:13:54;;;;;;;54.33;32.63;;;;;;;6.72;82.23;100270.75;5067658;28;20404;-20
2022/01/01 08:16:20;;;;;;;48.72;30.73;;;;;;;7.10;81.55;100289.03;5067313;28;20032;-20
2022/01/01 08:18:45;;;;;;;56.38;34.25;;;;;;;7.19;80.50;100295.88;5067991;28;20477;-21
2022/01/01 08:21:11;;;;;;;53.05;32.10;;;;;;;7.11;81.13;100306.59;5067474;28;20040;-21
2022/01/01 08:23:36;;;;;;;59.78;36.97;;;;;;;7.79;79.67;100298.13;5049480;28;20036;-20
2022/01/01 08:26:02;;;;;;;141.80;77.63;;;;;;;8.02;79.29;100319.91;5067535;28;20035;-20
2022/01/01 08:28:27;;;;;;;128.23;77.32;;;;;;;8.09;79.28;100311.16;5049771;28;20389;-21
2022/01/01 08:30:53;;;;;;;89.60;53.03;;;;;;;8.44;77.96;100323.44;5067312;28;20061;-22
2022/01/01 08:33:19;;;;;;;89.03;52.22;;;;;;;8.44;78.50;100306.69;5067194;28;20036;-20
2022/01/01 08:35:44;;;;;;;107.28;62.58;;;;;;;8.32;78.86;100322.31;5066993;28;20039;-20
2022/01/01 08:38:10;;;;;;;134.40;71.65;;;;;;;8.34;79.32;100324.78;5067366;28;20024;-21
2022/01/01 08:40:35;;;;;;;72.13;47.35;;;;;;;8.02;80.70;100332.38;5067158;28;20037;-21
2022/01/01 08:43:01;;;;;;;67.47;41.85;;;;;;;8.04;81.37;100331.16;5067538;28;20028;-21
2022/01/01 08:45:26;;;;;;;175.00;77.80;;;;;;;8.09;80.87;100335.06;5067150;28;20040;-21
2022/01/01 08:47:52;;;;;;;159.45;85.28;;;;;;;8.22;79.48;100333.31;5067466;28;20090;-20
2022/01/01 08:50:17;;;;;;;216.60;114.30;;;;;;;8.51;79.29;100349.22;5067188;28;20054;-21
2022/01/01 08:52:43;;;;;;;166.32;107.88;;;;;;;8.51;78.94;100344.72;5032800;28;20082;-21
2022/01/01 08:55:09;;;;;;;71.38;53.65;;;;;;;8.40;79.40;100331.97;5067562;28;20034;-21
2022/01/01 08:57:34;;;;;;;75.32;51.35;;;;;;;8.82;78.91;100354.84;5067031;28;20089;-20
2022/01/01 09:00:01;;;;;;;63.00;42.50;;;;;;;8.98;77.99;100344.88;5067376;28;20039;-20
2022/01/01 09:02:26;;;;;;;47.97;31.45;;;;;;;9.34;76.64;100362.34;5049070;28;20036;-21
2022/01/01 09:04:52;;;;;;;57.45;34.67;;;;;;;9.58;75.83;100343.09;5067141;28;20039;-21
2022/01/01 09:07:18;;;;;;;57.63;35.03;;;;;;;9.75;74.96;100337.34;5067217;28;20094;-21
2022/01/01 09:09:43;;;;;;;55.17;32.47;;;;;;;9.82;75.52;100327.47;5066879;28;20028;-21
2022/01/01 09:12:09;;;;;;;53.45;33.10;;;;;;;10.14;74.52;100330.28;5049086;28;20477;-20
2022/01/01 09:14:35;;;;;;;72.63;44.75;;;;;;;9.88;75.75;100331.97;5067341;28;20040;-22
2022/01/01 09:17:02;;;;;;;54.00;34.85;;;;;;;9.95;75.28;100326.63;5067007;28;20029;-20
2022/01/01 09:19:27;;;;;;;55.67;33.55;;;;;;;10.14;74.72;100324.97;5066884;28;20033;-21
2022/01/01 09:21:53;;;;;;;68.10;36.33;;;;;;;10.05;74.90;100322.53;5067004;28;20036;-20
2022/01/01 09:24:18;;;;;;;56.35;32.90;;;;;;;10.19;74.87;100314.47;5066942;28;20489;-22
2022/01/01 09:26:43;;;;;;;61.63;35.95;;;;;;;10.35;75.77;100327.38;5082134;28;20032;-20
2022/01/01 09:29:10;;;;;;;46.53;28.00;;;;;;;10.25;75.91;100321.63;5068803;28;20037;-21
2022/01/01 09:31:39;;;;;;;40.47;27.95;;;;;;;10.21;77.08;100307.91;5052369;28;20055;-21
2022/01/01 09:34:05;;;;;;;41.45;27.75;;;;;;;9.83;80.30;100305.97;5070710;28;20087;-20
2022/01/01 09:36:31;;;;;;;45.90;29.77;;;;;;;9.68;81.85;100296.56;5070725;28;20033;-21
2022/01/01 09:38:56;;;;;;;35.95;23.58;;;;;;;9.78;82.59;100297.78;5071593;28;20779;-20
2022/01/01 09:41:22;;;;;;;36.65;21.35;;;;;;;10.01;81.53;100302.66;5090854;28;20025;-21
2022/01/01 09:43:47;;;;;;;29.33;17.58;;;;;;;10.22;79.77;100311.41;5089705;28;20032;-20
2022/01/01 09:46:13;;;;;;;51.92;24.98;;;;;;;10.51;79.44;100290.59;5090795;28;20421;-20
2022/01/01 09:48:39;;;;;;;30.02;15.68;;;;;;;11.22;76.97;100306.38;5072057;28;20038;-20
2022/01/01 09:51:06;;;;;;;18.38;12.60;;;;;;;11.55;73.49;100309.81;5072080;28;20028;-21
2022/01/01 09:53:31;;;;;;;32.10;17.65;;;;;;;11.96;71.00;100319.91;5072117;28;20028;-20
2022/01/01 09:55:58;;;;;;;32.25;18.45;;;;;;;12.23;70.72;100309.75;5090366;28;20028;-21
2022/01/01 09:58:24;;;;;;;21.77;12.90;;;;;;;12.29;70.88;100308.03;5090223;28;20082;-20
2022/01/01 10:00:50;;;;;;;23.15;13.23;;;;;;;12.40;71.13;100293.91;5079266;28;20030;-21
2022/01/01 10:03:15;;;;;;;22.75;13.30;;;;;;;12.65;70.88;100275.06;5078963;28;20484;-21
2022/01/01 10:05:57;;;;;;;16.30;9.90;;;;;;;12.42;71.89;100286.50;5077528;28;20070;-22
2022/01/01 10:08:23;;;;;;;12.90;7.88;;;;;;;12.27;72.00;100294.06;5080062;28;20020;-20
2022/01/01 10:10:50;;;;;;;14.35;8.20;;;;;;;12.36;71.94;100283.88;5078256;28;20945;-21
2022/01/01 10:13:17;;;;;;;11.23;6.35;;;;;;;12.59;70.50;100285.84;5060430;28;20039;-21
2022/01/01 10:15:42;;;;;;;15.27;8.73;;;;;;;12.56;69.84;100264.91;5079462;28;20043;-21
2022/01/01 10:18:08;;;;;;;15.18;9.75;;;;;;;12.90;69.34;100281.31;5077282;28;20033;-21
2022/01/01 10:20:36;;;;;;;17.95;9.95;;;;;;;12.85;69.15;100264.06;5078598;28;20031;-21
2022/01/01 10:23:12;;;;;;;13.45;7.88;;;;;;;13.20;68.92;100276.72;5079618;28;20419;-21
2022/01/01 10:28:21;;;;;;;18.40;11.73;;;;;;;13.49;67.98;100276.88;5079379;28;20157;-22
2022/01/01 10:30:48;;;;;;;17.60;10.48;;;;;;;13.21;68.22;100264.13;5077045;28;20500;-21
2022/01/01 10:33:18;;;;;;;12.15;7.32;;;;;;;13.48;68.18;100272.56;5060332;28;20459;-21
2022/01/01 10:35:45;;;;;;;17.73;10.27;;;;;;;13.48;68.04;100280.59;5073030;28;20044;-21
2022/01/01 10:38:18;;;;;;;15.18;9.25;;;;;;;13.49;67.36;100279.56;5059864;28;20025;-21
2022/01/01 10:40:44;;;;;;;15.27;10.25;;;;;;;13.51;67.14;100269.44;5076945;28;20040;-21
2022/01/01 10:43:10;;;;;;;24.88;14.23;;;;;;;13.59;67.02;100270.94;5079113;28;20588;-20
2022/01/01 10:45:40;;;;;;;22.15;14.40;;;;;;;13.73;67.09;100261.63;5087109;28;20035;-21
2022/01/01 10:51:01;;;;;;;28.30;16.77;;;;;;;14.18;66.01;100270.81;5059158;28;20085;-21
2022/01/01 10:53:27;;;;;;;40.55;21.95;;;;;;;14.69;65.12;100274.53;5089480;28;20032;-20
2022/01/01 10:55:57;;;;;;;17.77;10.57;;;;;;;15.10;62.92;100277.09;5089388;28;20081;-20
2022/01/01 10:58:24;;;;;;;11.75;6.28;;;;;;;14.88;62.57;100269.78;5070759;28;20098;-20
2022/01/01 11:00:50;;;;;;;11.13;7.20;;;;;;;14.96;63.69;100264.00;5089140;28;20077;-21
2022/01/01 11:03:17;;;;;;;11.90;6.72;;;;;;;15.51;62.50;100272.34;5089170;28;20028;-21
2022/01/01 11:05:43;;;;;;;13.50;7.47;;;;;;;15.85;61.11;100249.78;5070531;28;20031;-20
2022/01/01 11:08:09;;;;;;;15.27;10.60;;;;;;;16.12;59.75;100265.16;5079178;28;20028;-20
2022/01/01 11:10:35;;;;;;;14.73;8.45;;;;;;;16.20;59.21;100261.19;5078294;28;20054;-21
2022/01/01 11:13:01;;;;;;;10.85;7.07;;;;;;;16.45;57.98;100244.53;5076459;28;20039;-20
2022/01/01 11:15:27;;;;;;;12.20;7.78;;;;;;;17.15;55.83;100268.91;5077325;28;20024;-21
2022/01/01 11:17:52;;;;;;;18.50;10.45;;;;;;;17.71;54.48;100260.38;5077998;28;20031;-20
2022/01/01 11:20:19;;;;;;;9.38;5.22;;;;;;;18.15;52.65;100265.47;5057921;28;20051;-20